sensor_id;sensor_type;location;lat;lon;timestamp;temperature;humidity
54824;DHT22;40724;53.196;5.980;2023-04-30T08:36:06;9.60;99.90
54824;DHT22;40724;53.196;5.980;2023-04-30T08:38:32;10.60;99.90
54824;DHT22;40724;53.196;5.980;2023-04-30T08:41:25;10.50;99.90
54824;DHT22;40724;53.196;5.980;2023-04-30T08:43:52;10.50;99.90
54824;DHT22;40724;53.196;5.980;2023-04-30T08:46:19;10.50;99.90
54824;DHT22;40724;53.196;5.980;2023-04-30T08:48:45;10.50;99.90
54824;DHT22;40724;53.196;5.980;2023-04-30T08:51:14;10.50;99.90
54824;DHT22;40724;53.196;5.980;2023-04-30T08:53:41;10.50;99.90
54824;DHT22;40724;53.196;5.980;2023-04-30T08:56:09;10.50;99.90
54824;DHT22;40724;53.196;5.980;2023-04-30T08:58:35;10.50;99.90
54824;DHT22;40724;53.196;5.980;2023-04-30T09:01:02;10.60;99.90
54824;DHT22;40724;53.196;5.980;2023-04-30T09:03:30;10.60;99.90
54824;DHT22;40724;53.196;5.980;2023-04-30T09:05:56;10.60;99.90
54824;DHT22;40724;53.196;5.980;2023-04-30T09:08:41;10.60;99.90
54824;DHT22;40724;53.196;5.980;2023-04-30T09:11:23;10.70;99.90
54824;DHT22;40724;53.196;5.980;2023-04-30T09:13:51;10.70;99.90
54824;DHT22;40724;53.196;5.980;2023-04-30T09:16:18;10.70;99.90
54824;DHT22;40724;53.196;5.980;2023-04-30T09:18:44;10.70;99.90
54824;DHT22;40724;53.196;5.980;2023-04-30T09:21:11;10.80;99.90
54824;DHT22;40724;53.196;5.980;2023-04-30T09:23:56;10.80;99.90
54824;DHT22;40724;53.196;5.980;2023-04-30T09:26:26;10.80;99.90
54824;DHT22;40724;53.196;5.980;2023-04-30T09:28:57;10.80;99.90
54824;DHT22;40724;53.196;5.980;2023-04-30T09:31:24;10.90;99.90
54824;DHT22;40724;53.196;5.980;2023-04-30T09:33:51;11.00;99.90
54824;DHT22;40724;53.196;5.980;2023-04-30T09:36:17;11.00;99.90
54824;DHT22;40724;53.196;5.980;2023-04-30T09:38:43;11.10;99.90
54824;DHT22;40724;53.196;5.980;2023-04-30T09:41:28;11.10;99.90
54824;DHT22;40724;53.196;5.980;2023-04-30T09:43:54;11.10;99.90
54824;DHT22;40724;53.196;5.980;2023-04-30T09:46:21;11.10;99.90
54824;DHT22;40724;53.196;5.980;2023-04-30T09:48:56;11.20;99.90
54824;DHT22;40724;53.196;5.980;2023-04-30T09:51:23;11.20;99.90
54824;DHT22;40724;53.196;5.980;2023-04-30T09:58:55;11.20;99.90
54824;DHT22;40724;53.196;5.980;2023-04-30T10:01:25;11.40;99.90
54824;DHT22;40724;53.196;5.980;2023-04-30T10:03:51;11.50;99.90
54824;DHT22;40724;53.196;5.980;2023-04-30T10:06:19;11.60;99.90
54824;DHT22;40724;53.196;5.980;2023-04-30T11:23:25;11.60;99.90
54824;DHT22;40724;53.196;5.980;2023-04-30T11:25:53;13.60;99.90
54824;DHT22;40724;53.196;5.980;2023-04-30T11:28:24;13.60;99.90
54824;DHT22;40724;53.196;5.980;2023-04-30T11:30:52;13.70;99.90
54824;DHT22;40724;53.196;5.980;2023-04-30T11:33:18;13.70;99.90
54824;DHT22;40724;53.196;5.980;2023-04-30T11:35:44;13.80;99.90
54824;DHT22;40724;53.196;5.980;2023-04-30T11:38:12;13.80;99.90
54824;DHT22;40724;53.196;5.980;2023-04-30T11:40:38;13.90;99.90
54824;DHT22;40724;53.196;5.980;2023-04-30T11:43:04;14.00;99.90
54824;DHT22;40724;53.196;5.980;2023-04-30T11:45:30;14.10;99.90
54824;DHT22;40724;53.196;5.980;2023-04-30T11:47:56;14.10;99.90
54824;DHT22;40724;53.196;5.980;2023-04-30T11:50:25;14.20;99.90
54824;DHT22;40724;53.196;5.980;2023-04-30T11:52:55;14.20;99.90
54824;DHT22;40724;53.196;5.980;2023-04-30T11:55:22;14.20;99.90
54824;DHT22;40724;53.196;5.980;2023-04-30T11:57:50;14.40;99.90
54824;DHT22;40724;53.196;5.980;2023-04-30T12:00:24;14.40;99.90
54824;DHT22;40724;53.196;5.980;2023-04-30T12:02:51;14.40;99.90
54824;DHT22;40724;53.196;5.980;2023-04-30T12:05:23;14.50;99.90
54824;DHT22;40724;53.196;5.980;2023-04-30T12:08:09;14.60;99.90
54824;DHT22;40724;53.196;5.980;2023-04-30T12:10:35;14.60;99.90
54824;DHT22;40724;53.196;5.980;2023-04-30T12:13:01;14.70;99.90
54824;DHT22;40724;53.196;5.980;2023-04-30T16:29:55;14.70;99.90
54824;DHT22;40724;53.196;5.980;2023-04-30T19:03:46;17.10;96.50
54824;DHT22;40724;53.196;5.980;2023-04-30T19:11:04;14.10;99.90
54824;DHT22;40724;53.196;5.980;2023-04-30T19:55:06;13.80;99.90
54824;DHT22;40724;53.196;5.980;2023-04-30T19:57:33;12.60;99.90
54824;DHT22;40724;53.196;5.980;2023-04-30T20:24:27;12.50;99.90
54824;DHT22;40724;53.196;5.980;2023-04-30T21:47:43;12.00;99.90
54824;DHT22;40724;53.196;5.980;2023-04-30T21:57:30;11.00;99.90
54824;DHT22;40724;53.196;5.980;2023-04-30T21:59:57;10.90;99.90
54824;DHT22;40724;53.196;5.980;2023-04-30T23:44:52;10.80;99.90
